createdAt,value
2022-09-06T00:00:02.071Z,69.18
2022-09-06T00:01:02.042Z,69.08
2022-09-06T00:02:02.038Z,69.08
2022-09-06T00:03:02.031Z,69.18
2022-09-06T00:04:02.092Z,69.21
2022-09-06T00:05:02.022Z,69.11
2022-09-06T00:06:01.972Z,69.31
2022-09-06T00:07:01.964Z,69.42
2022-09-06T00:08:01.953Z,69.42
2022-09-06T00:09:01.942Z,69.31
2022-09-06T00:10:01.935Z,68.81
2022-09-06T00:11:01.921Z,69.01
2022-09-06T00:12:01.910Z,69.21
2022-09-06T00:13:01.886Z,69.21
2022-09-06T00:14:01.886Z,69.21
2022-09-06T00:15:01.874Z,69.21
2022-09-06T00:16:01.890Z,69.21
2022-09-06T00:17:01.836Z,69.11
2022-09-06T00:18:01.814Z,69.01
2022-09-06T00:19:01.805Z,69.01
2022-09-06T00:20:01.802Z,69.01
2022-09-06T00:21:01.783Z,69.21
2022-09-06T00:22:01.762Z,69.42
2022-09-06T00:23:01.774Z,69.42
2022-09-06T00:24:01.743Z,69.52
2022-09-06T00:25:01.746Z,69.52
2022-09-06T00:26:01.714Z,69.72
2022-09-06T00:27:01.704Z,69.62
2022-09-06T00:28:01.685Z,69.72
2022-09-06T00:29:01.678Z,69.82
2022-09-06T00:30:01.677Z,69.72
2022-09-06T00:31:01.711Z,69.62
2022-09-06T00:32:01.634Z,69.52
2022-09-06T00:33:01.640Z,69.52
2022-09-06T00:34:01.616Z,69.42
2022-09-06T00:35:01.598Z,69.52
2022-09-06T00:36:01.589Z,69.82
2022-09-06T00:37:01.574Z,69.72
2022-09-06T00:38:01.547Z,69.92
2022-09-06T00:39:01.563Z,70.02
2022-09-06T00:40:01.636Z,69.92
2022-09-06T00:41:01.518Z,69.62
2022-09-06T00:42:01.498Z,69.82
2022-09-06T00:43:01.497Z,69.72
2022-09-06T00:44:01.483Z,69.42
2022-09-06T00:45:01.475Z,69.31
2022-09-06T00:46:01.518Z,69.31
2022-09-06T00:47:01.456Z,69.21
2022-09-06T00:48:01.429Z,69.31
2022-09-06T00:49:01.428Z,69.42
2022-09-06T00:50:01.420Z,69.31
2022-09-06T00:51:01.400Z,69.42
2022-09-06T00:52:01.427Z,69.52
2022-09-06T00:53:01.377Z,69.52
2022-09-06T00:54:01.359Z,69.75
2022-09-06T00:55:01.339Z,69.75
2022-09-06T00:56:01.321Z,69.95
2022-09-06T00:57:01.308Z,69.85
2022-09-06T00:58:01.289Z,70.15
2022-09-06T00:59:01.300Z,70.26
2022-09-06T01:00:01.270Z,70.06
2022-09-06T01:01:01.259Z,70.36
2022-09-06T01:02:01.420Z,70.46
2022-09-06T01:03:01.243Z,70.66
2022-09-06T01:04:01.221Z,70.56
2022-09-06T01:05:01.211Z,70.56
2022-09-06T01:06:01.189Z,70.56
2022-09-06T01:07:01.179Z,70.56
2022-09-06T01:08:01.167Z,70.66
2022-09-06T01:09:01.171Z,70.66
2022-09-06T01:10:01.130Z,70.46
2022-09-06T01:11:01.133Z,70.56
2022-09-06T01:12:01.100Z,70.36
2022-09-06T01:13:01.121Z,70.36
2022-09-06T01:14:01.088Z,70.26
2022-09-06T01:15:01.068Z,70.06
2022-09-06T01:16:22.089Z,70.15
2022-09-06T01:17:01.051Z,70.26
2022-09-06T01:18:01.052Z,70.26
2022-09-06T01:19:01.025Z,70.26
2022-09-06T01:20:01.022Z,70.46
2022-09-06T01:21:01.001Z,70.26
2022-09-06T01:22:00.980Z,69.85
2022-09-06T01:23:00.992Z,69.55
2022-09-06T01:24:00.950Z,69.45
2022-09-06T01:25:00.941Z,69.21
2022-09-06T01:26:00.931Z,69.21
2022-09-06T01:27:00.923Z,69.11
2022-09-06T01:28:00.901Z,68.91
2022-09-06T01:29:00.913Z,68.71
2022-09-06T01:30:00.882Z,68.91
2022-09-06T01:31:00.915Z,68.88
2022-09-06T01:32:00.852Z,68.88
2022-09-06T01:33:00.842Z,69.18
2022-09-06T01:34:00.842Z,68.68
2022-09-06T01:35:00.823Z,68.77
2022-09-06T01:36:00.793Z,68.57
2022-09-06T01:37:09.860Z,68.68
2022-09-06T01:38:01.772Z,68.98
2022-09-06T01:39:00.783Z,68.77
2022-09-06T01:40:00.798Z,68.48
2022-09-06T01:41:00.733Z,68.81
2022-09-06T01:42:00.727Z,69.21
2022-09-06T01:43:00.694Z,69.31
2022-09-06T01:44:00.713Z,69.31
2022-09-06T01:45:00.683Z,69.31
2022-09-06T01:46:00.725Z,69.11
2022-09-06T01:47:00.655Z,69.21
2022-09-06T01:48:00.644Z,69.42
2022-09-06T01:49:00.656Z,69.52
2022-09-06T01:50:00.617Z,69.52
2022-09-06T01:51:00.605Z,69.62
2022-09-06T01:52:00.595Z,69.52
2022-09-06T01:53:00.589Z,69.52
2022-09-06T01:54:00.576Z,69.62
2022-09-06T01:55:00.555Z,69.82
2022-09-06T01:56:00.543Z,69.72
2022-09-06T01:57:00.526Z,69.31
2022-09-06T01:58:00.515Z,69.42
2022-09-06T01:59:00.516Z,69.52
2022-09-06T02:00:00.495Z,69.52
2022-09-06T02:01:00.476Z,69.92
2022-09-06T02:02:00.504Z,69.82
2022-09-06T02:03:00.528Z,70.02
2022-09-06T02:04:00.459Z,69.82
2022-09-06T02:05:00.426Z,69.92
2022-09-06T02:06:00.396Z,69.72
2022-09-06T02:07:00.413Z,69.52
2022-09-06T02:08:00.387Z,69.52
2022-09-06T02:09:00.395Z,69.72
2022-09-06T02:10:00.366Z,69.92
2022-09-06T02:11:00.346Z,69.72
2022-09-06T02:12:00.327Z,70.02
2022-09-06T02:13:00.319Z,70.22
2022-09-06T02:14:00.329Z,69.62
2022-09-06T02:15:00.296Z,69.62
2022-09-06T02:16:00.258Z,69.82
2022-09-06T02:17:00.326Z,70.02
2022-09-06T02:18:00.249Z,70.22
2022-09-06T02:19:00.245Z,70.12
2022-09-06T02:20:00.239Z,69.82
2022-09-06T02:21:00.216Z,69.72
2022-09-06T02:22:00.189Z,69.72
2022-09-06T02:23:00.207Z,69.92
2022-09-06T02:24:00.169Z,70.29
2022-09-06T02:25:00.184Z,69.99
2022-09-06T02:26:00.128Z,69.99
2022-09-06T02:27:00.129Z,70.09
2022-09-06T02:28:00.110Z,70.19
2022-09-06T02:29:00.101Z,70.09
2022-09-06T02:30:00.120Z,70.09
2022-09-06T02:31:00.268Z,70.19
2022-09-06T02:32:00.078Z,70.29
2022-09-06T02:33:00.068Z,70.49
2022-09-06T02:34:00.062Z,70.39
2022-09-06T02:35:00.030Z,70.19
2022-09-06T02:36:00.009Z,70.29
2022-09-06T02:37:00.001Z,70.59
2022-09-06T02:37:59.989Z,70.39
2022-09-06T02:38:59.990Z,70.62
2022-09-06T02:40:00.010Z,70.73
2022-09-06T02:40:59.960Z,70.62
2022-09-06T02:41:59.930Z,70.83
2022-09-06T02:42:59.938Z,70.79
2022-09-06T02:43:59.930Z,70.59
2022-09-06T02:44:59.891Z,70.49
2022-09-06T02:45:59.894Z,70.69
2022-09-06T02:46:59.871Z,70.79
2022-09-06T02:47:59.851Z,71.00
2022-09-06T02:48:59.845Z,71.00
2022-09-06T02:49:59.851Z,71.10
2022-09-06T02:50:59.812Z,71.30
2022-09-06T02:51:59.802Z,71.50
2022-09-06T02:52:59.791Z,71.60
2022-09-06T02:53:59.771Z,71.60
2022-09-06T02:54:59.771Z,71.80
2022-09-06T02:55:59.750Z,72.71
2022-09-06T02:56:59.740Z,72.51
2022-09-06T02:57:59.721Z,72.41
2022-09-06T02:58:59.714Z,73.32
2022-09-06T02:59:59.711Z,74.22
2022-09-06T03:00:59.739Z,73.72
2022-09-06T03:01:59.730Z,74.63
2022-09-06T03:02:59.661Z,74.73
2022-09-06T03:03:59.640Z,75.43
2022-09-06T03:04:59.676Z,75.63
2022-09-06T03:05:59.620Z,75.94
2022-09-06T03:06:59.634Z,74.32
2022-09-06T03:07:59.591Z,74.52
2022-09-06T03:08:59.584Z,75.13
2022-09-06T03:09:59.582Z,75.84
2022-09-06T03:10:59.553Z,76.64
2022-09-06T03:11:59.545Z,76.04
2022-09-06T03:12:59.534Z,75.84
2022-09-06T03:13:59.543Z,75.94
2022-09-06T03:14:59.524Z,75.84
2022-09-06T03:15:59.487Z,76.34
2022-09-06T03:16:59.556Z,76.14
2022-09-06T03:17:59.466Z,76.75
2022-09-06T03:18:59.455Z,76.84
2022-09-06T03:19:59.453Z,76.14
2022-09-06T03:20:59.426Z,76.54
2022-09-06T03:21:59.414Z,76.64
2022-09-06T03:22:59.427Z,76.34
2022-09-06T03:23:59.397Z,75.94
2022-09-06T03:24:59.384Z,76.44
2022-09-06T03:25:59.352Z,75.74
2022-09-06T03:26:59.347Z,75.94
2022-09-06T03:27:59.342Z,75.94
2022-09-06T03:28:59.325Z,75.84
2022-09-06T03:29:59.314Z,76.44
2022-09-06T03:30:59.363Z,76.64
2022-09-06T03:31:59.293Z,76.34
2022-09-06T03:33:02.637Z,75.43
2022-09-06T03:33:59.257Z,74.83
2022-09-06T03:34:59.274Z,74.73
2022-09-06T03:35:59.226Z,74.73
2022-09-06T03:36:59.217Z,75.13
2022-09-06T03:37:59.197Z,75.23
2022-09-06T03:38:59.186Z,74.73
2022-09-06T03:39:59.271Z,74.63
2022-09-06T03:40:59.177Z,73.72
2022-09-06T03:41:59.137Z,73.28
2022-09-06T03:42:59.136Z,72.98
2022-09-06T03:43:59.118Z,73.08
2022-09-06T03:44:59.116Z,72.88
2022-09-06T03:45:59.176Z,72.98
2022-09-06T03:46:59.085Z,73.18
2022-09-06T03:47:59.067Z,73.48
2022-09-06T03:48:59.055Z,73.68
2022-09-06T03:49:59.048Z,73.18
2022-09-06T03:50:59.053Z,73.08
2022-09-06T03:51:59.032Z,72.67
2022-09-06T03:52:58.998Z,72.47
2022-09-06T03:53:58.988Z,72.58
2022-09-06T03:54:58.979Z,72.47
2022-09-06T03:55:58.988Z,72.47
2022-09-06T03:56:58.955Z,72.27
2022-09-06T03:57:58.940Z,72.47
2022-09-06T03:58:58.933Z,71.47
2022-09-06T03:59:58.912Z,71.70
2022-09-06T04:00:59.203Z,71.80
2022-09-06T04:01:58.902Z,72.11
2022-09-06T04:03:01.740Z,72.51
2022-09-06T04:03:58.850Z,72.71
2022-09-06T04:04:58.850Z,72.17
2022-09-06T04:05:58.850Z,71.77
2022-09-06T04:06:58.826Z,71.67
2022-09-06T04:07:58.807Z,72.17
2022-09-06T04:08:58.790Z,72.27
2022-09-06T04:09:58.779Z,72.17
2022-09-06T04:10:58.780Z,72.27
2022-09-06T04:11:58.751Z,72.47
2022-09-06T04:12:58.739Z,72.67
2022-09-06T04:13:58.728Z,72.88
2022-09-06T04:14:58.710Z,72.98
2022-09-06T04:15:58.741Z,72.98
2022-09-06T04:16:58.815Z,72.78
2022-09-06T04:17:58.672Z,72.38
2022-09-06T04:18:58.660Z,72.47
2022-09-06T04:19:58.642Z,72.31
2022-09-06T04:20:58.672Z,72.51
2022-09-06T04:21:58.621Z,72.71
2022-09-06T04:22:58.610Z,72.91
2022-09-06T04:23:58.591Z,72.91
2022-09-06T04:24:58.582Z,72.71
2022-09-06T04:25:58.581Z,72.81
2022-09-06T04:26:58.591Z,73.01
2022-09-06T04:27:58.550Z,73.32
2022-09-06T04:28:58.532Z,73.32
2022-09-06T04:29:58.526Z,73.52
2022-09-06T04:31:02.137Z,73.62
2022-09-06T04:31:59.573Z,73.62
2022-09-06T04:32:58.462Z,73.62
2022-09-06T04:33:58.464Z,73.62
2022-09-06T04:34:58.459Z,73.75
2022-09-06T04:35:58.465Z,73.96
2022-09-06T04:36:58.432Z,74.05
2022-09-06T04:37:58.412Z,74.05
2022-09-06T04:38:58.402Z,74.36
2022-09-06T04:39:58.426Z,74.49
2022-09-06T04:40:58.385Z,74.60
2022-09-06T04:41:58.362Z,74.80
2022-09-06T04:42:58.345Z,74.90
2022-09-06T04:43:58.333Z,74.80
2022-09-06T04:44:58.313Z,74.80
2022-09-06T04:45:58.385Z,75.20
2022-09-06T04:46:58.294Z,75.20
2022-09-06T04:47:58.283Z,75.31
2022-09-06T04:48:58.276Z,75.44
2022-09-06T04:49:58.257Z,75.74
2022-09-06T04:50:58.254Z,75.95
2022-09-06T04:51:58.225Z,75.95
2022-09-06T04:52:58.214Z,75.84
2022-09-06T04:53:58.215Z,75.74
2022-09-06T04:54:58.189Z,75.98
2022-09-06T04:55:58.192Z,75.98
2022-09-06T04:56:58.166Z,75.98
2022-09-06T04:57:58.144Z,76.08
2022-09-06T04:58:58.134Z,76.18
2022-09-06T04:59:58.115Z,76.28
2022-09-06T05:00:58.212Z,76.18
2022-09-06T05:01:58.143Z,76.08
2022-09-06T05:02:58.093Z,76.15
2022-09-06T05:03:58.089Z,75.84
2022-09-06T05:04:58.076Z,75.84
2022-09-06T05:05:58.086Z,75.95
2022-09-06T05:06:58.025Z,76.15
2022-09-06T05:07:58.050Z,76.18
2022-09-06T05:08:58.012Z,76.28
2022-09-06T05:09:58.009Z,76.39
2022-09-06T05:10:57.997Z,76.48
2022-09-06T05:11:57.976Z,76.59
2022-09-06T05:12:57.979Z,76.59
2022-09-06T05:13:57.941Z,76.62
2022-09-06T05:14:57.976Z,76.62
2022-09-06T05:15:57.916Z,76.72
2022-09-06T05:16:57.963Z,76.72
2022-09-06T05:17:57.882Z,77.03
2022-09-06T05:18:57.878Z,77.29
2022-09-06T05:19:57.847Z,77.09
2022-09-06T05:20:57.865Z,76.89
2022-09-06T05:21:57.822Z,76.48
2022-09-06T05:22:57.817Z,76.59
2022-09-06T05:23:58.806Z,76.59
2022-09-06T05:24:57.797Z,76.79
2022-09-06T05:25:57.789Z,76.59
2022-09-06T05:26:57.768Z,76.39
2022-09-06T05:27:57.759Z,76.39
2022-09-06T05:28:57.735Z,76.59
2022-09-06T05:29:57.722Z,76.59
2022-09-06T05:30:57.818Z,76.79
2022-09-06T05:31:57.710Z,76.59
2022-09-06T05:32:57.678Z,76.89
2022-09-06T05:33:57.654Z,76.99
2022-09-06T05:34:57.659Z,76.69
2022-09-06T05:35:57.642Z,76.48
2022-09-06T05:36:57.633Z,76.69
2022-09-06T05:37:57.618Z,76.79
2022-09-06T05:38:57.601Z,77.09
2022-09-06T05:39:57.653Z,77.29
2022-09-06T05:40:57.570Z,77.29
2022-09-06T05:41:57.580Z,77.19
2022-09-06T05:42:57.533Z,77.06
2022-09-06T05:43:57.547Z,76.95
2022-09-06T05:44:57.524Z,76.95
2022-09-06T05:45:57.555Z,76.75
2022-09-06T05:46:57.511Z,76.75
2022-09-06T05:47:57.488Z,76.75
2022-09-06T05:48:57.463Z,76.95
2022-09-06T05:49:57.453Z,77.26
2022-09-06T05:50:57.441Z,76.95
2022-09-06T05:51:57.441Z,76.86
2022-09-06T05:52:57.410Z,76.75
2022-09-06T05:53:57.402Z,76.75
2022-09-06T05:54:57.393Z,76.65
2022-09-06T05:55:57.371Z,76.75
2022-09-06T05:56:57.392Z,76.86
2022-09-06T05:57:57.363Z,76.65
2022-09-06T05:58:57.331Z,76.75
2022-09-06T05:59:57.322Z,76.95
2022-09-06T06:00:57.381Z,77.02
2022-09-06T06:01:57.407Z,76.92
2022-09-06T06:02:57.281Z,76.72
2022-09-06T06:03:57.274Z,76.62
2022-09-06T06:04:57.254Z,76.62
2022-09-06T06:05:57.256Z,76.51
2022-09-06T06:06:57.240Z,76.42
2022-09-06T06:07:57.232Z,76.18
2022-09-06T06:08:57.206Z,76.38
2022-09-06T06:09:57.192Z,76.38
2022-09-06T06:10:57.174Z,76.07
2022-09-06T06:11:57.182Z,76.07
2022-09-06T06:12:57.152Z,76.28
2022-09-06T06:13:57.143Z,75.67
2022-09-06T06:14:57.127Z,75.77
2022-09-06T06:15:57.117Z,75.67
2022-09-06T06:16:57.214Z,75.98
2022-09-06T06:17:57.097Z,76.07
2022-09-06T06:18:57.073Z,76.28
2022-09-06T06:19:57.092Z,76.48
2022-09-06T06:20:57.043Z,76.28
2022-09-06T06:21:57.052Z,76.28
2022-09-06T06:22:57.023Z,76.28
2022-09-06T06:23:57.002Z,76.18
2022-09-06T06:24:56.985Z,76.18
2022-09-06T06:25:56.981Z,76.34
2022-09-06T06:26:56.983Z,76.44
2022-09-06T06:27:56.944Z,76.34
2022-09-06T06:28:56.943Z,76.34
2022-09-06T06:29:56.935Z,76.24
2022-09-06T06:30:56.904Z,76.14
2022-09-06T06:31:56.966Z,76.24
2022-09-06T06:32:56.893Z,76.24
2022-09-06T06:33:56.905Z,76.34
2022-09-06T06:34:56.864Z,76.34
2022-09-06T06:35:56.855Z,76.31
2022-09-06T06:36:56.846Z,76.20
2022-09-06T06:37:56.823Z,76.51
2022-09-06T06:38:56.803Z,76.20
2022-09-06T06:39:56.850Z,76.31
2022-09-06T06:41:00.173Z,76.00
2022-09-06T06:41:57.787Z,76.10
2022-09-06T06:42:56.755Z,76.10
2022-09-06T06:43:56.753Z,75.96
2022-09-06T06:44:56.727Z,76.17
2022-09-06T06:45:56.769Z,76.17
2022-09-06T06:46:56.718Z,75.76
2022-09-06T06:47:56.697Z,76.07
2022-09-06T06:48:56.684Z,76.17
2022-09-06T06:49:56.669Z,75.76
2022-09-06T06:50:56.658Z,76.07
2022-09-06T06:51:56.667Z,76.17
2022-09-06T06:52:56.619Z,75.96
2022-09-06T06:53:56.618Z,75.96
2022-09-06T06:54:56.607Z,75.83
2022-09-06T06:55:56.589Z,75.73
2022-09-06T06:56:56.602Z,75.63
2022-09-06T06:57:56.568Z,75.53
2022-09-06T06:58:56.538Z,75.33
2022-09-06T06:59:56.551Z,75.02
2022-09-06T07:00:56.722Z,74.62
2022-09-06T07:01:56.643Z,74.08
2022-09-06T07:02:56.488Z,74.38
2022-09-06T07:03:56.479Z,74.38
2022-09-06T07:04:56.468Z,74.38
2022-09-06T07:06:12.584Z,74.29
2022-09-06T07:07:57.431Z,73.48
2022-09-06T07:08:56.429Z,73.24
2022-09-06T07:10:57.389Z,73.95
2022-09-06T07:11:56.390Z,74.05
2022-09-06T07:12:56.362Z,74.05
2022-09-06T07:13:56.350Z,74.05
2022-09-06T07:14:56.338Z,73.75
2022-09-06T07:15:56.379Z,73.44
2022-09-06T07:16:56.321Z,72.94
2022-09-06T07:17:56.302Z,72.91
2022-09-06T07:18:56.299Z,72.71
2022-09-06T07:21:58.518Z,72.81
2022-09-06T07:22:56.344Z,72.50
2022-09-06T07:24:11.601Z,72.50
2022-09-06T07:24:57.200Z,72.61
2022-09-06T07:25:56.192Z,72.67
2022-09-06T07:27:57.151Z,72.47
2022-09-06T07:28:56.160Z,72.17
2022-09-06T07:29:56.131Z,72.27
2022-09-06T07:30:56.120Z,72.07
2022-09-06T07:32:11.941Z,71.77
2022-09-06T07:32:57.089Z,71.47
2022-09-06T07:33:56.100Z,71.33
2022-09-06T07:34:56.055Z,71.23
2022-09-06T07:35:56.052Z,71.13
2022-09-06T07:36:56.053Z,71.23
2022-09-06T07:37:56.029Z,71.23
2022-09-06T07:38:56.012Z,71.43
2022-09-06T07:39:56.114Z,71.09
2022-09-06T07:40:55.978Z,71.00
2022-09-06T07:41:55.982Z,70.89
2022-09-06T07:42:55.949Z,70.70
2022-09-06T07:43:55.961Z,70.59
2022-09-06T07:44:55.930Z,70.19
2022-09-06T07:45:55.920Z,68.88
2022-09-06T07:48:55.864Z,68.65
2022-09-06T07:50:59.099Z,68.65
2022-09-06T07:51:55.871Z,68.65
2022-09-06T07:53:14.983Z,68.55
2022-09-06T07:54:56.797Z,68.35
2022-09-06T07:55:55.785Z,68.22
2022-09-06T07:56:55.793Z,68.02
2022-09-06T07:57:55.766Z,68.42
2022-09-06T07:58:55.754Z,67.92
2022-09-06T07:59:55.735Z,67.72
2022-09-06T08:00:55.761Z,67.72
2022-09-06T08:01:55.876Z,67.82
2022-09-06T08:02:56.495Z,67.72
2022-09-06T08:03:55.676Z,68.02
2022-09-06T08:04:55.674Z,68.22
2022-09-06T08:06:11.153Z,68.19
2022-09-06T08:09:55.607Z,68.19
2022-09-06T08:10:55.587Z,67.69
2022-09-06T08:11:55.597Z,67.85
2022-09-06T08:12:55.566Z,67.65
2022-09-06T08:13:55.576Z,67.55
2022-09-06T08:14:55.568Z,67.45
2022-09-06T08:15:55.559Z,66.95
2022-09-06T08:16:55.508Z,66.65
2022-09-06T08:17:55.529Z,66.65
2022-09-06T08:18:55.477Z,66.65
2022-09-06T08:19:55.469Z,66.65
2022-09-06T08:20:55.448Z,66.72
2022-09-06T08:21:55.448Z,66.92
2022-09-06T08:22:55.438Z,66.72
2022-09-06T08:23:55.416Z,67.02
2022-09-06T08:24:55.393Z,66.62
2022-09-06T08:25:55.387Z,66.32
2022-09-06T08:26:55.441Z,66.92
2022-09-06T08:27:55.408Z,66.82
2022-09-06T08:28:55.344Z,67.22
2022-09-06T08:29:55.340Z,66.49
2022-09-06T08:30:55.311Z,66.39
2022-09-06T08:31:55.383Z,65.78
2022-09-06T08:32:55.309Z,65.99
2022-09-06T08:33:55.293Z,65.78
2022-09-06T08:34:55.270Z,65.59
2022-09-06T08:35:55.250Z,65.48
2022-09-06T08:36:55.241Z,65.45
2022-09-06T08:37:55.250Z,65.36
2022-09-06T08:38:55.211Z,65.36
2022-09-06T08:39:55.268Z,64.95
2022-09-06T08:40:55.193Z,64.86
2022-09-06T08:41:55.173Z,64.75
2022-09-06T08:42:55.181Z,64.45
2022-09-06T08:44:57.192Z,64.15
2022-09-06T08:45:55.814Z,64.06
2022-09-06T08:46:55.195Z,64.22
2022-09-06T08:47:55.113Z,64.03
2022-09-06T08:48:55.082Z,63.82
2022-09-06T08:49:55.080Z,63.92
2022-09-06T08:50:55.051Z,64.83
2022-09-06T08:51:55.052Z,64.83
2022-09-06T08:53:15.778Z,64.42
2022-09-06T08:53:56.022Z,64.22
2022-09-06T08:54:55.005Z,64.42
2022-09-06T08:55:54.997Z,64.52
2022-09-06T08:56:54.974Z,64.09
2022-09-06T08:57:54.973Z,64.00
2022-09-06T08:58:54.943Z,63.49
2022-09-06T08:59:54.933Z,63.49
2022-09-06T09:00:54.976Z,62.89
2022-09-06T09:01:54.971Z,62.79
2022-09-06T09:02:54.920Z,63.69
2022-09-06T09:03:54.884Z,63.26
2022-09-06T09:04:54.873Z,63.17
2022-09-06T09:05:54.854Z,62.96
2022-09-06T09:06:54.843Z,62.66
2022-09-06T09:07:54.865Z,62.37
2022-09-06T09:08:54.812Z,62.86
2022-09-06T09:09:54.816Z,62.63
2022-09-06T09:10:54.776Z,62.53
2022-09-06T09:11:54.775Z,62.23
2022-09-06T09:12:54.772Z,62.13
2022-09-06T09:13:56.041Z,62.13
2022-09-06T09:14:54.735Z,61.83
2022-09-06T09:15:54.801Z,62.04
2022-09-06T09:16:54.704Z,62.53
2022-09-06T09:17:54.736Z,62.93
2022-09-06T09:18:54.684Z,62.70
2022-09-06T09:19:54.675Z,61.41
2022-09-06T09:20:54.660Z,62.01
2022-09-06T09:21:54.648Z,62.70
2022-09-06T09:22:54.648Z,61.71
2022-09-06T09:23:54.616Z,61.47
2022-09-06T09:24:54.597Z,60.58
2022-09-06T09:25:54.598Z,60.68
2022-09-06T09:26:54.580Z,60.58
2022-09-06T09:27:54.568Z,60.58
2022-09-06T09:28:54.568Z,60.48
2022-09-06T09:30:55.710Z,60.45
2022-09-06T09:31:54.595Z,60.75
2022-09-06T09:32:54.499Z,60.85
2022-09-06T09:33:54.506Z,60.85
2022-09-06T09:34:54.469Z,60.65
2022-09-06T09:35:54.465Z,60.45
2022-09-06T09:37:57.439Z,60.05
2022-09-06T09:38:55.428Z,60.32
2022-09-06T09:39:54.460Z,60.02
2022-09-06T09:40:54.390Z,59.72
2022-09-06T09:41:54.378Z,59.42
2022-09-06T09:42:54.358Z,59.19
2022-09-06T09:43:54.378Z,58.70
2022-09-06T09:44:54.330Z,58.40
2022-09-06T09:45:54.358Z,57.90
2022-09-06T09:46:54.407Z,57.80
2022-09-06T09:47:54.309Z,58.70
2022-09-06T09:48:54.301Z,59.17
2022-09-06T09:49:54.281Z,58.76
2022-09-06T09:50:54.260Z,59.06
2022-09-06T09:51:54.250Z,58.44
2022-09-06T09:52:54.232Z,58.14
2022-09-06T09:53:54.232Z,57.64
2022-09-06T09:54:54.259Z,57.92
2022-09-06T09:55:54.192Z,57.52
2022-09-06T09:56:54.184Z,57.42
2022-09-06T09:57:54.194Z,57.22
2022-09-06T09:58:54.278Z,57.09
2022-09-06T09:59:54.142Z,57.09
2022-09-06T10:00:54.179Z,56.49
2022-09-06T10:01:54.112Z,55.87
2022-09-06T10:02:54.123Z,56.07
2022-09-06T10:04:55.092Z,55.57
2022-09-06T10:05:57.598Z,55.18
2022-09-06T10:07:10.678Z,55.38
2022-09-06T10:07:55.033Z,55.18
2022-09-06T10:08:54.054Z,55.44
2022-09-06T10:09:54.023Z,55.25
2022-09-06T10:10:54.002Z,55.25
2022-09-06T10:11:53.983Z,55.44
2022-09-06T10:12:53.976Z,54.46
2022-09-06T10:13:53.973Z,54.06
2022-09-06T10:14:53.954Z,54.75
2022-09-06T10:15:54.023Z,54.75
2022-09-06T10:16:53.926Z,54.65
2022-09-06T10:17:53.904Z,54.85
2022-09-06T10:18:53.916Z,54.16
2022-09-06T10:19:53.864Z,53.73
2022-09-06T10:20:53.866Z,53.83
2022-09-06T10:21:53.856Z,53.04
2022-09-06T10:22:53.845Z,53.33
2022-09-06T10:24:54.814Z,53.23
2022-09-06T10:25:53.794Z,53.23
2022-09-06T10:26:53.788Z,53.63
2022-09-06T10:28:10.404Z,53.53
2022-09-06T10:28:54.786Z,52.81
2022-09-06T10:29:53.737Z,53.21
2022-09-06T10:30:53.755Z,52.72
2022-09-06T10:31:53.720Z,53.21
2022-09-06T10:32:53.706Z,53.28
2022-09-06T10:33:53.695Z,50.70
2022-09-06T10:34:53.707Z,51.10
2022-09-06T10:35:53.677Z,50.40
2022-09-06T10:36:53.676Z,50.11
2022-09-06T10:37:53.783Z,50.01
2022-09-06T10:38:53.638Z,49.99
2022-09-06T10:39:53.705Z,50.98
2022-09-06T10:40:53.607Z,50.58
2022-09-06T10:41:53.587Z,50.98
2022-09-06T10:42:53.569Z,51.47
2022-09-06T10:43:53.541Z,51.77
2022-09-06T10:44:53.561Z,51.57
2022-09-06T10:45:53.550Z,51.35
2022-09-06T10:46:53.584Z,51.35
2022-09-06T10:47:53.520Z,51.35
2022-09-06T10:48:53.521Z,50.65
2022-09-06T10:49:53.489Z,49.57
2022-09-06T10:50:53.468Z,49.86
2022-09-06T10:51:53.472Z,50.34
2022-09-06T10:52:53.450Z,50.13
2022-09-06T10:53:53.438Z,49.94
2022-09-06T10:54:53.459Z,48.75
2022-09-06T10:55:53.399Z,49.44
2022-09-06T10:56:53.381Z,49.91
2022-09-06T10:59:54.361Z,49.12
2022-09-06T11:00:53.353Z,49.02
2022-09-06T11:01:53.412Z,49.22
2022-09-06T11:03:56.711Z,49.42
2022-09-06T11:05:54.313Z,48.40
2022-09-06T11:06:53.282Z,49.29
2022-09-06T11:08:57.740Z,48.80
2022-09-06T11:09:53.260Z,48.60
2022-09-06T11:10:53.214Z,47.91
2022-09-06T11:11:53.220Z,48.30
2022-09-06T11:12:53.182Z,47.61
2022-09-06T11:13:53.174Z,47.31
2022-09-06T11:14:53.164Z,47.89
2022-09-06T11:15:53.231Z,47.99
2022-09-06T11:16:53.136Z,47.39
2022-09-06T11:17:53.134Z,46.01
2022-09-06T11:18:53.143Z,46.50
2022-09-06T11:19:53.104Z,46.80
2022-09-06T11:20:53.085Z,46.48
2022-09-06T11:21:53.056Z,47.56
2022-09-06T11:22:53.065Z,47.17
2022-09-06T11:23:53.039Z,45.79
2022-09-06T11:24:53.044Z,45.79
2022-09-06T11:25:53.016Z,45.68
2022-09-06T11:26:53.004Z,46.58
2022-09-06T11:27:57.309Z,45.96
2022-09-06T11:28:53.975Z,45.76
2022-09-06T11:29:52.977Z,46.95
2022-09-06T11:30:53.006Z,45.57
2022-09-06T11:32:53.917Z,45.37
2022-09-06T11:33:52.939Z,45.76
2022-09-06T11:34:52.897Z,44.97
2022-09-06T11:35:52.897Z,46.16
2022-09-06T11:36:52.869Z,45.57
2022-09-06T11:37:52.858Z,44.97
2022-09-06T11:38:52.869Z,45.94
2022-09-06T11:40:53.829Z,45.94
2022-09-06T11:41:52.808Z,46.44
2022-09-06T11:42:52.810Z,46.01
2022-09-06T11:43:52.798Z,46.81
2022-09-06T11:44:52.805Z,46.51
2022-09-06T11:45:52.793Z,46.22
2022-09-06T11:46:52.801Z,46.39
2022-09-06T11:47:52.739Z,45.79
2022-09-06T11:48:52.746Z,44.81
2022-09-06T11:49:52.708Z,45.10
2022-09-06T11:50:52.702Z,45.30
2022-09-06T11:51:52.690Z,45.70
2022-09-06T11:52:52.670Z,45.60
2022-09-06T11:53:52.659Z,44.91
2022-09-06T11:54:52.671Z,44.71
2022-09-06T11:55:52.640Z,44.61
2022-09-06T11:56:52.623Z,45.30
2022-09-06T11:57:52.611Z,45.08
2022-09-06T11:58:52.602Z,45.18
2022-09-06T11:59:52.608Z,44.49
2022-09-06T12:00:52.649Z,44.00
2022-09-06T12:01:52.561Z,44.39
2022-09-06T12:02:53.213Z,44.69
2022-09-06T12:04:08.517Z,44.49
2022-09-06T12:04:55.240Z,44.29
2022-09-06T12:05:52.503Z,44.37
2022-09-06T12:06:52.494Z,43.68
2022-09-06T12:07:52.532Z,44.27
2022-09-06T12:08:52.473Z,44.37
2022-09-06T12:09:52.463Z,44.76
2022-09-06T12:10:52.444Z,44.37
2022-09-06T12:11:52.432Z,44.27
2022-09-06T12:12:52.453Z,44.57
2022-09-06T12:13:52.406Z,44.67
2022-09-06T12:14:52.416Z,44.07
2022-09-06T12:15:52.420Z,42.89
2022-09-06T12:16:52.372Z,42.50
2022-09-06T12:17:52.355Z,43.51
2022-09-06T12:18:52.346Z,44.20
2022-09-06T12:19:52.345Z,44.98
2022-09-06T12:20:52.317Z,45.30
2022-09-06T12:21:52.325Z,45.18
2022-09-06T12:22:52.287Z,45.18
2022-09-06T12:23:52.268Z,44.29
2022-09-06T12:24:52.288Z,44.98
2022-09-06T12:25:52.238Z,44.69
2022-09-06T12:26:55.543Z,44.07
2022-09-06T12:27:52.208Z,43.98
2022-09-06T12:28:52.208Z,44.07
2022-09-06T12:29:52.209Z,43.37
2022-09-06T12:30:52.248Z,43.76
2022-09-06T12:31:52.301Z,43.37
2022-09-06T12:32:52.150Z,42.97
2022-09-06T12:33:52.130Z,42.95
2022-09-06T12:35:56.225Z,42.65
2022-09-06T12:36:52.101Z,43.05
2022-09-06T12:37:52.074Z,42.16
2022-09-06T12:38:52.075Z,42.24
2022-09-06T12:39:52.117Z,42.24
2022-09-06T12:40:52.049Z,42.63
2022-09-06T12:41:52.114Z,43.03
2022-09-06T12:42:52.011Z,42.14
2022-09-06T12:43:51.992Z,41.94
2022-09-06T12:44:51.991Z,41.65
2022-09-06T12:45:52.002Z,41.55
2022-09-06T12:46:52.005Z,41.93
2022-09-06T12:47:51.952Z,41.83
2022-09-06T12:48:51.943Z,41.14
2022-09-06T12:49:51.924Z,40.55
2022-09-06T12:50:51.912Z,40.84
2022-09-06T12:51:51.893Z,41.33
2022-09-06T12:52:51.884Z,41.43
2022-09-06T12:53:51.873Z,41.53
2022-09-06T12:54:51.863Z,41.14
2022-09-06T12:55:51.863Z,40.94
2022-09-06T12:56:51.835Z,41.41
2022-09-06T12:57:51.823Z,40.62
2022-09-06T12:58:51.803Z,41.02
2022-09-06T12:59:51.810Z,41.80
2022-09-06T13:00:51.798Z,41.61
2022-09-06T13:01:51.936Z,41.31
2022-09-06T13:02:51.860Z,41.02
2022-09-06T13:03:51.733Z,40.92
2022-09-06T13:04:51.727Z,40.92
2022-09-06T13:05:51.734Z,40.92
2022-09-06T13:06:51.706Z,40.90
2022-09-06T13:07:51.688Z,40.90
2022-09-06T13:08:51.676Z,41.02
2022-09-06T13:09:51.648Z,41.43
2022-09-06T13:10:51.677Z,40.64
2022-09-06T13:11:51.668Z,40.74
2022-09-06T13:12:51.627Z,40.64
2022-09-06T13:13:51.664Z,41.33
2022-09-06T13:14:51.607Z,41.55
2022-09-06T13:15:51.652Z,41.67
2022-09-06T13:16:51.578Z,42.07